sensor_id;sensor_type;location;lat;lon;timestamp;P1;durP1;ratioP1;P2;durP2;ratioP2
81627;SDS011;71036;51.102;6.514;2024-03-17T00:02:12;21.40;;;5.70;;
81627;SDS011;71036;51.102;6.514;2024-03-17T00:04:37;8.97;;;5.50;;
81627;SDS011;71036;51.102;6.514;2024-03-17T00:07:03;12.73;;;6.00;;
81627;SDS011;71036;51.102;6.514;2024-03-17T00:09:28;24.93;;;6.90;;
81627;SDS011;71036;51.102;6.514;2024-03-17T00:11:54;15.67;;;6.30;;
81627;SDS011;71036;51.102;6.514;2024-03-17T00:14:20;13.87;;;6.30;;
81627;SDS011;71036;51.102;6.514;2024-03-17T00:16:46;13.40;;;6.20;;
81627;SDS011;71036;51.102;6.514;2024-03-17T00:19:13;10.97;;;6.67;;
81627;SDS011;71036;51.102;6.514;2024-03-17T00:21:38;21.50;;;6.50;;
81627;SDS011;71036;51.102;6.514;2024-03-17T00:24:05;11.97;;;5.80;;
81627;SDS011;71036;51.102;6.514;2024-03-17T00:26:30;12.20;;;5.23;;
81627;SDS011;71036;51.102;6.514;2024-03-17T00:28:56;15.53;;;5.87;;
81627;SDS011;71036;51.102;6.514;2024-03-17T00:31:21;9.93;;;5.03;;
81627;SDS011;71036;51.102;6.514;2024-03-17T00:33:48;15.67;;;5.80;;
81627;SDS011;71036;51.102;6.514;2024-03-17T00:36:17;12.20;;;5.43;;
81627;SDS011;71036;51.102;6.514;2024-03-17T00:38:42;13.53;;;7.63;;
81627;SDS011;71036;51.102;6.514;2024-03-17T00:41:07;11.27;;;5.70;;
81627;SDS011;71036;51.102;6.514;2024-03-17T00:43:33;10.87;;;5.43;;
81627;SDS011;71036;51.102;6.514;2024-03-17T00:45:58;10.67;;;5.80;;
81627;SDS011;71036;51.102;6.514;2024-03-17T00:48:23;17.17;;;7.03;;
81627;SDS011;71036;51.102;6.514;2024-03-17T00:50:54;19.00;;;7.83;;
81627;SDS011;71036;51.102;6.514;2024-03-17T00:53:20;13.93;;;6.50;;
81627;SDS011;71036;51.102;6.514;2024-03-17T00:55:50;17.53;;;7.37;;
81627;SDS011;71036;51.102;6.514;2024-03-17T00:58:22;24.80;;;7.30;;
81627;SDS011;71036;51.102;6.514;2024-03-17T01:00:47;26.43;;;6.47;;
81627;SDS011;71036;51.102;6.514;2024-03-17T01:03:16;10.03;;;6.50;;
81627;SDS011;71036;51.102;6.514;2024-03-17T01:05:41;18.20;;;7.10;;
81627;SDS011;71036;51.102;6.514;2024-03-17T01:08:09;14.60;;;7.00;;
81627;SDS011;71036;51.102;6.514;2024-03-17T01:10:38;14.80;;;6.43;;
81627;SDS011;71036;51.102;6.514;2024-03-17T01:13:05;17.07;;;7.07;;
81627;SDS011;71036;51.102;6.514;2024-03-17T01:15:31;24.63;;;7.10;;
81627;SDS011;71036;51.102;6.514;2024-03-17T01:17:57;21.80;;;7.83;;
81627;SDS011;71036;51.102;6.514;2024-03-17T01:20:22;18.50;;;7.80;;
81627;SDS011;71036;51.102;6.514;2024-03-17T01:22:47;16.67;;;7.67;;
81627;SDS011;71036;51.102;6.514;2024-03-17T01:25:13;17.73;;;7.93;;
81627;SDS011;71036;51.102;6.514;2024-03-17T01:27:39;11.30;;;7.60;;
81627;SDS011;71036;51.102;6.514;2024-03-17T01:30:04;17.53;;;8.00;;
81627;SDS011;71036;51.102;6.514;2024-03-17T01:32:30;25.20;;;7.23;;
81627;SDS011;71036;51.102;6.514;2024-03-17T01:34:55;18.27;;;7.63;;
81627;SDS011;71036;51.102;6.514;2024-03-17T01:37:21;17.53;;;7.80;;
81627;SDS011;71036;51.102;6.514;2024-03-17T01:39:46;19.70;;;7.03;;
81627;SDS011;71036;51.102;6.514;2024-03-17T01:42:11;20.43;;;7.53;;
81627;SDS011;71036;51.102;6.514;2024-03-17T01:44:36;14.90;;;7.37;;
81627;SDS011;71036;51.102;6.514;2024-03-17T01:47:02;17.03;;;8.30;;
81627;SDS011;71036;51.102;6.514;2024-03-17T01:49:28;15.03;;;6.57;;
81627;SDS011;71036;51.102;6.514;2024-03-17T01:51:53;15.30;;;7.73;;
81627;SDS011;71036;51.102;6.514;2024-03-17T01:54:19;15.53;;;7.80;;
81627;SDS011;71036;51.102;6.514;2024-03-17T01:56:45;15.93;;;7.73;;
81627;SDS011;71036;51.102;6.514;2024-03-17T01:59:10;15.03;;;7.47;;
81627;SDS011;71036;51.102;6.514;2024-03-17T02:01:36;15.47;;;6.57;;
81627;SDS011;71036;51.102;6.514;2024-03-17T02:04:03;12.40;;;7.43;;
81627;SDS011;71036;51.102;6.514;2024-03-17T02:06:29;12.43;;;6.20;;
81627;SDS011;71036;51.102;6.514;2024-03-17T02:08:55;19.13;;;7.03;;
81627;SDS011;71036;51.102;6.514;2024-03-17T02:11:25;12.43;;;6.50;;
81627;SDS011;71036;51.102;6.514;2024-03-17T02:13:55;12.60;;;7.70;;
81627;SDS011;71036;51.102;6.514;2024-03-17T02:16:21;32.47;;;7.70;;
81627;SDS011;71036;51.102;6.514;2024-03-17T02:18:47;13.00;;;6.80;;
81627;SDS011;71036;51.102;6.514;2024-03-17T02:21:13;28.23;;;7.60;;
81627;SDS011;71036;51.102;6.514;2024-03-17T02:23:40;12.07;;;6.47;;
81627;SDS011;71036;51.102;6.514;2024-03-17T02:26:06;18.23;;;7.13;;
81627;SDS011;71036;51.102;6.514;2024-03-17T02:28:38;12.40;;;6.53;;
81627;SDS011;71036;51.102;6.514;2024-03-17T02:31:05;14.13;;;7.73;;
81627;SDS011;71036;51.102;6.514;2024-03-17T02:33:31;13.53;;;7.13;;
81627;SDS011;71036;51.102;6.514;2024-03-17T02:35:57;13.13;;;6.50;;
81627;SDS011;71036;51.102;6.514;2024-03-17T02:38:22;17.87;;;8.60;;
81627;SDS011;71036;51.102;6.514;2024-03-17T02:41:06;12.40;;;7.00;;
81627;SDS011;71036;51.102;6.514;2024-03-17T02:43:31;12.17;;;6.60;;
81627;SDS011;71036;51.102;6.514;2024-03-17T02:45:57;17.53;;;7.20;;
81627;SDS011;71036;51.102;6.514;2024-03-17T02:48:22;12.60;;;6.73;;
81627;SDS011;71036;51.102;6.514;2024-03-17T02:50:48;11.70;;;6.40;;
81627;SDS011;71036;51.102;6.514;2024-03-17T02:53:13;21.00;;;5.83;;
81627;SDS011;71036;51.102;6.514;2024-03-17T02:55:39;11.77;;;7.43;;
81627;SDS011;71036;51.102;6.514;2024-03-17T02:58:04;15.83;;;6.73;;
81627;SDS011;71036;51.102;6.514;2024-03-17T03:00:29;11.03;;;6.03;;
81627;SDS011;71036;51.102;6.514;2024-03-17T03:02:55;16.43;;;6.10;;
81627;SDS011;71036;51.102;6.514;2024-03-17T03:05:20;11.20;;;6.07;;
81627;SDS011;71036;51.102;6.514;2024-03-17T03:07:45;12.47;;;7.00;;
81627;SDS011;71036;51.102;6.514;2024-03-17T03:10:10;15.33;;;6.63;;
81627;SDS011;71036;51.102;6.514;2024-03-17T03:12:36;13.20;;;6.40;;
81627;SDS011;71036;51.102;6.514;2024-03-17T03:15:01;14.00;;;5.80;;
81627;SDS011;71036;51.102;6.514;2024-03-17T03:17:26;13.50;;;6.57;;
81627;SDS011;71036;51.102;6.514;2024-03-17T03:19:52;11.90;;;6.27;;
81627;SDS011;71036;51.102;6.514;2024-03-17T03:22:17;9.97;;;5.33;;
81627;SDS011;71036;51.102;6.514;2024-03-17T03:24:42;10.70;;;6.20;;
81627;SDS011;71036;51.102;6.514;2024-03-17T03:27:08;10.50;;;6.23;;
81627;SDS011;71036;51.102;6.514;2024-03-17T03:29:33;11.83;;;6.57;;
81627;SDS011;71036;51.102;6.514;2024-03-17T03:31:58;9.43;;;4.80;;
81627;SDS011;71036;51.102;6.514;2024-03-17T03:34:24;11.27;;;5.63;;
81627;SDS011;71036;51.102;6.514;2024-03-17T03:36:49;7.80;;;5.10;;
81627;SDS011;71036;51.102;6.514;2024-03-17T03:39:14;11.47;;;5.97;;
81627;SDS011;71036;51.102;6.514;2024-03-17T03:41:40;7.97;;;5.00;;
81627;SDS011;71036;51.102;6.514;2024-03-17T03:44:05;8.53;;;5.30;;
81627;SDS011;71036;51.102;6.514;2024-03-17T03:46:30;11.80;;;5.40;;
81627;SDS011;71036;51.102;6.514;2024-03-17T03:48:56;14.27;;;4.73;;
81627;SDS011;71036;51.102;6.514;2024-03-17T03:51:21;7.33;;;5.00;;
81627;SDS011;71036;51.102;6.514;2024-03-17T03:53:46;9.73;;;4.90;;
81627;SDS011;71036;51.102;6.514;2024-03-17T03:56:11;9.20;;;4.70;;
81627;SDS011;71036;51.102;6.514;2024-03-17T03:58:37;6.90;;;4.00;;
81627;SDS011;71036;51.102;6.514;2024-03-17T04:01:05;9.70;;;4.07;;
81627;SDS011;71036;51.102;6.514;2024-03-17T04:03:32;8.57;;;4.97;;
81627;SDS011;71036;51.102;6.514;2024-03-17T04:06:02;5.03;;;3.20;;
81627;SDS011;71036;51.102;6.514;2024-03-17T04:08:29;10.20;;;4.17;;
81627;SDS011;71036;51.102;6.514;2024-03-17T04:10:54;6.37;;;4.33;;
81627;SDS011;71036;51.102;6.514;2024-03-17T04:13:20;6.90;;;3.90;;
81627;SDS011;71036;51.102;6.514;2024-03-17T04:15:45;14.63;;;3.80;;
81627;SDS011;71036;51.102;6.514;2024-03-17T04:18:10;9.27;;;3.97;;
81627;SDS011;71036;51.102;6.514;2024-03-17T04:20:36;12.73;;;5.63;;
81627;SDS011;71036;51.102;6.514;2024-03-17T04:23:01;7.33;;;4.47;;
81627;SDS011;71036;51.102;6.514;2024-03-17T04:25:28;8.00;;;4.60;;
81627;SDS011;71036;51.102;6.514;2024-03-17T04:27:53;7.87;;;4.63;;
81627;SDS011;71036;51.102;6.514;2024-03-17T04:30:19;5.67;;;3.50;;
81627;SDS011;71036;51.102;6.514;2024-03-17T04:32:44;9.90;;;4.47;;
81627;SDS011;71036;51.102;6.514;2024-03-17T04:35:10;6.20;;;3.90;;
81627;SDS011;71036;51.102;6.514;2024-03-17T04:37:35;6.23;;;3.67;;
81627;SDS011;71036;51.102;6.514;2024-03-17T04:40:04;4.80;;;3.10;;
81627;SDS011;71036;51.102;6.514;2024-03-17T04:42:34;4.13;;;2.90;;
81627;SDS011;71036;51.102;6.514;2024-03-17T04:44:59;6.47;;;3.33;;
81627;SDS011;71036;51.102;6.514;2024-03-17T04:47:25;4.93;;;3.47;;
81627;SDS011;71036;51.102;6.514;2024-03-17T04:49:50;8.40;;;4.53;;
81627;SDS011;71036;51.102;6.514;2024-03-17T04:52:15;4.40;;;3.67;;
81627;SDS011;71036;51.102;6.514;2024-03-17T04:54:41;6.90;;;4.10;;
81627;SDS011;71036;51.102;6.514;2024-03-17T04:57:08;8.47;;;3.90;;
81627;SDS011;71036;51.102;6.514;2024-03-17T04:59:34;8.70;;;4.17;;
81627;SDS011;71036;51.102;6.514;2024-03-17T05:02:00;11.63;;;4.00;;
81627;SDS011;71036;51.102;6.514;2024-03-17T05:04:25;8.30;;;3.50;;
81627;SDS011;71036;51.102;6.514;2024-03-17T05:06:51;6.47;;;3.60;;
81627;SDS011;71036;51.102;6.514;2024-03-17T05:09:16;10.60;;;3.97;;
81627;SDS011;71036;51.102;6.514;2024-03-17T05:11:42;9.60;;;3.40;;
81627;SDS011;71036;51.102;6.514;2024-03-17T05:14:08;5.60;;;3.50;;
81627;SDS011;71036;51.102;6.514;2024-03-17T05:16:34;8.50;;;3.73;;
81627;SDS011;71036;51.102;6.514;2024-03-17T05:18:59;3.67;;;2.63;;
81627;SDS011;71036;51.102;6.514;2024-03-17T05:21:25;5.93;;;3.67;;
81627;SDS011;71036;51.102;6.514;2024-03-17T05:23:51;12.03;;;3.83;;
81627;SDS011;71036;51.102;6.514;2024-03-17T05:26:17;12.30;;;4.43;;
81627;SDS011;71036;51.102;6.514;2024-03-17T05:28:43;5.70;;;3.60;;
81627;SDS011;71036;51.102;6.514;2024-03-17T05:31:09;7.47;;;3.53;;
81627;SDS011;71036;51.102;6.514;2024-03-17T05:33:34;7.27;;;3.03;;
81627;SDS011;71036;51.102;6.514;2024-03-17T05:36:00;11.93;;;3.33;;
81627;SDS011;71036;51.102;6.514;2024-03-17T05:38:27;4.43;;;3.10;;
81627;SDS011;71036;51.102;6.514;2024-03-17T05:40:59;6.37;;;2.83;;
81627;SDS011;71036;51.102;6.514;2024-03-17T05:43:26;9.87;;;3.37;;
81627;SDS011;71036;51.102;6.514;2024-03-17T05:45:53;5.87;;;2.70;;
81627;SDS011;71036;51.102;6.514;2024-03-17T05:48:19;5.40;;;2.60;;
81627;SDS011;71036;51.102;6.514;2024-03-17T05:50:46;6.60;;;3.10;;
81627;SDS011;71036;51.102;6.514;2024-03-17T05:53:11;4.37;;;3.00;;
81627;SDS011;71036;51.102;6.514;2024-03-17T05:55:37;7.23;;;2.80;;
81627;SDS011;71036;51.102;6.514;2024-03-17T05:58:03;5.93;;;2.80;;
81627;SDS011;71036;51.102;6.514;2024-03-17T06:00:28;3.77;;;2.53;;
81627;SDS011;71036;51.102;6.514;2024-03-17T06:02:55;3.47;;;2.23;;
81627;SDS011;71036;51.102;6.514;2024-03-17T06:05:20;7.07;;;2.43;;
81627;SDS011;71036;51.102;6.514;2024-03-17T06:07:46;2.40;;;1.83;;
81627;SDS011;71036;51.102;6.514;2024-03-17T06:10:12;2.97;;;2.40;;
81627;SDS011;71036;51.102;6.514;2024-03-17T06:12:37;4.17;;;2.40;;
81627;SDS011;71036;51.102;6.514;2024-03-17T06:15:03;3.30;;;2.00;;
81627;SDS011;71036;51.102;6.514;2024-03-17T06:17:28;6.83;;;2.70;;
81627;SDS011;71036;51.102;6.514;2024-03-17T06:19:53;2.87;;;2.60;;
81627;SDS011;71036;51.102;6.514;2024-03-17T06:22:19;4.47;;;2.80;;
81627;SDS011;71036;51.102;6.514;2024-03-17T06:24:44;2.40;;;2.20;;
81627;SDS011;71036;51.102;6.514;2024-03-17T06:27:09;9.33;;;2.70;;
81627;SDS011;71036;51.102;6.514;2024-03-17T06:29:35;3.80;;;2.00;;
81627;SDS011;71036;51.102;6.514;2024-03-17T06:32:00;3.47;;;2.10;;
81627;SDS011;71036;51.102;6.514;2024-03-17T06:34:25;6.00;;;1.93;;
81627;SDS011;71036;51.102;6.514;2024-03-17T06:36:51;3.07;;;2.30;;
81627;SDS011;71036;51.102;6.514;2024-03-17T06:39:16;5.30;;;2.20;;
81627;SDS011;71036;51.102;6.514;2024-03-17T06:41:44;5.40;;;2.20;;
81627;SDS011;71036;51.102;6.514;2024-03-17T06:44:10;3.23;;;2.10;;
81627;SDS011;71036;51.102;6.514;2024-03-17T06:46:35;4.87;;;1.90;;
81627;SDS011;71036;51.102;6.514;2024-03-17T06:49:00;6.53;;;2.20;;
81627;SDS011;71036;51.102;6.514;2024-03-17T06:51:26;2.47;;;1.90;;
81627;SDS011;71036;51.102;6.514;2024-03-17T06:53:51;5.17;;;2.10;;
81627;SDS011;71036;51.102;6.514;2024-03-17T06:56:16;5.03;;;1.70;;
81627;SDS011;71036;51.102;6.514;2024-03-17T06:58:41;5.43;;;2.53;;
81627;SDS011;71036;51.102;6.514;2024-03-17T07:01:07;4.33;;;2.10;;
81627;SDS011;71036;51.102;6.514;2024-03-17T07:03:33;6.97;;;2.10;;
81627;SDS011;71036;51.102;6.514;2024-03-17T07:05:59;2.93;;;2.03;;
81627;SDS011;71036;51.102;6.514;2024-03-17T07:08:29;6.53;;;2.33;;
81627;SDS011;71036;51.102;6.514;2024-03-17T07:10:59;8.40;;;1.70;;
81627;SDS011;71036;51.102;6.514;2024-03-17T07:13:28;2.50;;;1.97;;
81627;SDS011;71036;51.102;6.514;2024-03-17T07:15:54;3.73;;;2.23;;
81627;SDS011;71036;51.102;6.514;2024-03-17T07:18:20;3.50;;;1.97;;
81627;SDS011;71036;51.102;6.514;2024-03-17T07:20:45;5.43;;;2.03;;
81627;SDS011;71036;51.102;6.514;2024-03-17T07:23:12;8.03;;;1.97;;
81627;SDS011;71036;51.102;6.514;2024-03-17T07:25:41;2.17;;;1.87;;
81627;SDS011;71036;51.102;6.514;2024-03-17T07:28:07;1.97;;;1.50;;
81627;SDS011;71036;51.102;6.514;2024-03-17T07:30:32;7.27;;;1.90;;
81627;SDS011;71036;51.102;6.514;2024-03-17T07:32:58;2.70;;;2.10;;
81627;SDS011;71036;51.102;6.514;2024-03-17T07:35:23;2.80;;;1.80;;
81627;SDS011;71036;51.102;6.514;2024-03-17T07:37:48;3.80;;;1.63;;
81627;SDS011;71036;51.102;6.514;2024-03-17T07:40:13;3.03;;;2.00;;
81627;SDS011;71036;51.102;6.514;2024-03-17T07:42:40;2.40;;;1.80;;
81627;SDS011;71036;51.102;6.514;2024-03-17T07:45:06;3.50;;;1.33;;
81627;SDS011;71036;51.102;6.514;2024-03-17T07:47:32;5.83;;;1.40;;
81627;SDS011;71036;51.102;6.514;2024-03-17T07:50:04;4.97;;;1.93;;
81627;SDS011;71036;51.102;6.514;2024-03-17T07:52:30;4.00;;;2.10;;
81627;SDS011;71036;51.102;6.514;2024-03-17T07:54:56;5.07;;;1.57;;
81627;SDS011;71036;51.102;6.514;2024-03-17T07:57:22;2.70;;;1.93;;
81627;SDS011;71036;51.102;6.514;2024-03-17T07:59:50;5.57;;;1.60;;
81627;SDS011;71036;51.102;6.514;2024-03-17T08:02:18;4.40;;;1.90;;
81627;SDS011;71036;51.102;6.514;2024-03-17T08:04:44;2.60;;;1.40;;
81627;SDS011;71036;51.102;6.514;2024-03-17T08:07:12;3.70;;;2.00;;
81627;SDS011;71036;51.102;6.514;2024-03-17T08:09:37;8.43;;;1.37;;
81627;SDS011;71036;51.102;6.514;2024-03-17T08:12:02;5.93;;;1.80;;
81627;SDS011;71036;51.102;6.514;2024-03-17T08:14:29;8.93;;;2.07;;
81627;SDS011;71036;51.102;6.514;2024-03-17T08:16:57;4.00;;;1.43;;
81627;SDS011;71036;51.102;6.514;2024-03-17T08:19:22;2.03;;;1.83;;
81627;SDS011;71036;51.102;6.514;2024-03-17T08:21:48;5.20;;;1.27;;
81627;SDS011;71036;51.102;6.514;2024-03-17T08:24:13;2.60;;;1.50;;
81627;SDS011;71036;51.102;6.514;2024-03-17T08:26:38;4.73;;;1.60;;
81627;SDS011;71036;51.102;6.514;2024-03-17T08:29:05;3.10;;;1.67;;
81627;SDS011;71036;51.102;6.514;2024-03-17T08:31:31;3.70;;;1.23;;
81627;SDS011;71036;51.102;6.514;2024-03-17T08:33:57;2.20;;;1.40;;
81627;SDS011;71036;51.102;6.514;2024-03-17T08:36:22;2.73;;;1.60;;
81627;SDS011;71036;51.102;6.514;2024-03-17T08:38:48;4.10;;;1.60;;
81627;SDS011;71036;51.102;6.514;2024-03-17T08:41:13;2.23;;;1.70;;
81627;SDS011;71036;51.102;6.514;2024-03-17T08:43:38;3.27;;;2.00;;
81627;SDS011;71036;51.102;6.514;2024-03-17T08:46:07;3.10;;;1.23;;
81627;SDS011;71036;51.102;6.514;2024-03-17T08:48:34;2.13;;;1.60;;
81627;SDS011;71036;51.102;6.514;2024-03-17T08:51:01;4.70;;;1.90;;
81627;SDS011;71036;51.102;6.514;2024-03-17T08:53:27;2.03;;;1.70;;
81627;SDS011;71036;51.102;6.514;2024-03-17T08:55:53;1.70;;;1.33;;
81627;SDS011;71036;51.102;6.514;2024-03-17T08:58:19;4.07;;;1.87;;
81627;SDS011;71036;51.102;6.514;2024-03-17T09:00:44;3.53;;;1.87;;
81627;SDS011;71036;51.102;6.514;2024-03-17T09:03:10;2.67;;;1.83;;
81627;SDS011;71036;51.102;6.514;2024-03-17T09:05:37;2.40;;;1.40;;
81627;SDS011;71036;51.102;6.514;2024-03-17T09:08:06;6.53;;;1.90;;
81627;SDS011;71036;51.102;6.514;2024-03-17T09:10:38;5.00;;;1.70;;
81627;SDS011;71036;51.102;6.514;2024-03-17T09:13:04;2.47;;;2.10;;
81627;SDS011;71036;51.102;6.514;2024-03-17T09:15:29;3.00;;;1.97;;
81627;SDS011;71036;51.102;6.514;2024-03-17T09:17:55;5.60;;;2.63;;
81627;SDS011;71036;51.102;6.514;2024-03-17T09:20:20;2.83;;;1.90;;
81627;SDS011;71036;51.102;6.514;2024-03-17T09:22:45;2.13;;;1.70;;
81627;SDS011;71036;51.102;6.514;2024-03-17T09:25:10;3.73;;;2.30;;
81627;SDS011;71036;51.102;6.514;2024-03-17T09:27:36;6.57;;;1.70;;
81627;SDS011;71036;51.102;6.514;2024-03-17T09:30:03;3.87;;;2.80;;
81627;SDS011;71036;51.102;6.514;2024-03-17T09:32:31;4.83;;;2.87;;
81627;SDS011;71036;51.102;6.514;2024-03-17T09:34:56;7.77;;;2.83;;
81627;SDS011;71036;51.102;6.514;2024-03-17T09:37:22;4.33;;;2.93;;
81627;SDS011;71036;51.102;6.514;2024-03-17T09:39:48;5.87;;;3.60;;
81627;SDS011;71036;51.102;6.514;2024-03-17T09:42:18;8.60;;;3.17;;
81627;SDS011;71036;51.102;6.514;2024-03-17T09:44:46;3.60;;;2.90;;
81627;SDS011;71036;51.102;6.514;2024-03-17T09:47:20;16.90;;;3.30;;
81627;SDS011;71036;51.102;6.514;2024-03-17T09:49:46;4.60;;;3.20;;
81627;SDS011;71036;51.102;6.514;2024-03-17T09:52:18;5.80;;;3.63;;
81627;SDS011;71036;51.102;6.514;2024-03-17T09:54:45;6.40;;;2.77;;
81627;SDS011;71036;51.102;6.514;2024-03-17T09:57:15;4.40;;;3.20;;
81627;SDS011;71036;51.102;6.514;2024-03-17T09:59:42;11.20;;;3.40;;
81627;SDS011;71036;51.102;6.514;2024-03-17T10:02:09;4.53;;;2.77;;
81627;SDS011;71036;51.102;6.514;2024-03-17T10:04:43;6.53;;;3.67;;
81627;SDS011;71036;51.102;6.514;2024-03-17T10:07:08;9.03;;;4.17;;
81627;SDS011;71036;51.102;6.514;2024-03-17T10:09:34;6.43;;;3.30;;
81627;SDS011;71036;51.102;6.514;2024-03-17T10:11:59;5.00;;;3.50;;
81627;SDS011;71036;51.102;6.514;2024-03-17T10:14:24;5.07;;;3.43;;
81627;SDS011;71036;51.102;6.514;2024-03-17T10:16:50;6.57;;;3.70;;
81627;SDS011;71036;51.102;6.514;2024-03-17T10:21:46;13.20;;;3.90;;
81627;SDS011;71036;51.102;6.514;2024-03-17T10:24:24;6.33;;;3.10;;
81627;SDS011;71036;51.102;6.514;2024-03-17T10:26:51;7.10;;;3.30;;
81627;SDS011;71036;51.102;6.514;2024-03-17T10:29:22;9.90;;;3.80;;
81627;SDS011;71036;51.102;6.514;2024-03-17T10:31:53;7.97;;;3.37;;
81627;SDS011;71036;51.102;6.514;2024-03-17T10:34:19;5.53;;;3.30;;
81627;SDS011;71036;51.102;6.514;2024-03-17T10:36:45;5.93;;;3.50;;
81627;SDS011;71036;51.102;6.514;2024-03-17T10:39:18;5.30;;;3.20;;
81627;SDS011;71036;51.102;6.514;2024-03-17T10:41:54;6.67;;;3.53;;
81627;SDS011;71036;51.102;6.514;2024-03-17T10:44:25;8.13;;;4.00;;
81627;SDS011;71036;51.102;6.514;2024-03-17T10:46:52;9.33;;;3.30;;
81627;SDS011;71036;51.102;6.514;2024-03-17T10:49:19;6.97;;;3.87;;
81627;SDS011;71036;51.102;6.514;2024-03-17T10:51:45;8.20;;;3.73;;
81627;SDS011;71036;51.102;6.514;2024-03-17T10:54:15;14.03;;;3.10;;
81627;SDS011;71036;51.102;6.514;2024-03-17T10:56:51;4.00;;;2.97;;
81627;SDS011;71036;51.102;6.514;2024-03-17T10:59:16;4.17;;;3.30;;
81627;SDS011;71036;51.102;6.514;2024-03-17T11:01:47;4.43;;;3.00;;
81627;SDS011;71036;51.102;6.514;2024-03-17T11:04:15;7.83;;;3.67;;
81627;SDS011;71036;51.102;6.514;2024-03-17T11:06:41;4.73;;;3.30;;
81627;SDS011;71036;51.102;6.514;2024-03-17T11:09:08;5.17;;;3.73;;
81627;SDS011;71036;51.102;6.514;2024-03-17T11:11:39;7.10;;;3.00;;
81627;SDS011;71036;51.102;6.514;2024-03-17T11:14:16;5.03;;;3.40;;
81627;SDS011;71036;51.102;6.514;2024-03-17T11:16:47;9.13;;;3.40;;
81627;SDS011;71036;51.102;6.514;2024-03-17T11:19:15;6.93;;;3.33;;
81627;SDS011;71036;51.102;6.514;2024-03-17T11:21:41;3.90;;;2.70;;
81627;SDS011;71036;51.102;6.514;2024-03-17T11:24:07;6.33;;;3.37;;
81627;SDS011;71036;51.102;6.514;2024-03-17T11:26:44;5.47;;;4.33;;
81627;SDS011;71036;51.102;6.514;2024-03-17T11:29:23;4.47;;;3.33;;
81627;SDS011;71036;51.102;6.514;2024-03-17T11:31:51;3.67;;;2.83;;
81627;SDS011;71036;51.102;6.514;2024-03-17T11:34:27;11.83;;;5.33;;
81627;SDS011;71036;51.102;6.514;2024-03-17T11:36:57;8.63;;;4.33;;
81627;SDS011;71036;51.102;6.514;2024-03-17T11:42:16;11.67;;;4.50;;
81627;SDS011;71036;51.102;6.514;2024-03-17T11:44:42;7.97;;;4.43;;
81627;SDS011;71036;51.102;6.514;2024-03-17T11:47:08;5.10;;;3.83;;
81627;SDS011;71036;51.102;6.514;2024-03-17T11:49:34;7.37;;;4.30;;
81627;SDS011;71036;51.102;6.514;2024-03-17T11:52:02;10.87;;;4.50;;
81627;SDS011;71036;51.102;6.514;2024-03-17T11:54:32;7.47;;;4.30;;
81627;SDS011;71036;51.102;6.514;2024-03-17T11:57:02;8.70;;;4.10;;
81627;SDS011;71036;51.102;6.514;2024-03-17T11:59:28;5.77;;;3.20;;
81627;SDS011;71036;51.102;6.514;2024-03-17T12:01:54;8.40;;;4.67;;
81627;SDS011;71036;51.102;6.514;2024-03-17T12:04:21;5.60;;;3.20;;
81627;SDS011;71036;51.102;6.514;2024-03-17T12:06:51;6.40;;;4.43;;
81627;SDS011;71036;51.102;6.514;2024-03-17T12:09:21;10.27;;;4.90;;
81627;SDS011;71036;51.102;6.514;2024-03-17T12:11:59;9.87;;;4.00;;
81627;SDS011;71036;51.102;6.514;2024-03-17T12:14:26;7.33;;;3.83;;
81627;SDS011;71036;51.102;6.514;2024-03-17T12:19:21;6.63;;;3.90;;
81627;SDS011;71036;51.102;6.514;2024-03-17T12:21:48;7.50;;;4.13;;
81627;SDS011;71036;51.102;6.514;2024-03-17T12:24:16;5.43;;;3.80;;
81627;SDS011;71036;51.102;6.514;2024-03-17T12:26:44;7.13;;;4.20;;
81627;SDS011;71036;51.102;6.514;2024-03-17T12:32:10;17.60;;;5.13;;
81627;SDS011;71036;51.102;6.514;2024-03-17T12:34:40;9.70;;;4.30;;
81627;SDS011;71036;51.102;6.514;2024-03-17T12:37:06;13.33;;;5.60;;
81627;SDS011;71036;51.102;6.514;2024-03-17T12:39:32;10.17;;;4.40;;
81627;SDS011;71036;51.102;6.514;2024-03-17T12:42:00;5.40;;;3.43;;
81627;SDS011;71036;51.102;6.514;2024-03-17T12:44:38;7.13;;;4.83;;
81627;SDS011;71036;51.102;6.514;2024-03-17T12:47:33;10.30;;;4.27;;
81627;SDS011;71036;51.102;6.514;2024-03-17T12:50:00;10.90;;;5.23;;
81627;SDS011;71036;51.102;6.514;2024-03-17T12:52:27;7.50;;;3.57;;
81627;SDS011;71036;51.102;6.514;2024-03-17T12:57:44;8.17;;;4.00;;
81627;SDS011;71036;51.102;6.514;2024-03-17T13:00:28;8.30;;;3.50;;
81627;SDS011;71036;51.102;6.514;2024-03-17T13:02:56;9.10;;;4.60;;
81627;SDS011;71036;51.102;6.514;2024-03-17T13:05:22;10.27;;;4.80;;
81627;SDS011;71036;51.102;6.514;2024-03-17T13:07:48;7.30;;;4.30;;
81627;SDS011;71036;51.102;6.514;2024-03-17T13:10:15;8.33;;;3.77;;
81627;SDS011;71036;51.102;6.514;2024-03-17T13:12:42;3.50;;;2.87;;
81627;SDS011;71036;51.102;6.514;2024-03-17T13:15:15;7.13;;;3.53;;
81627;SDS011;71036;51.102;6.514;2024-03-17T13:17:42;7.00;;;4.10;;
81627;SDS011;71036;51.102;6.514;2024-03-17T13:20:10;7.07;;;3.93;;
81627;SDS011;71036;51.102;6.514;2024-03-17T13:22:40;5.77;;;3.40;;
81627;SDS011;71036;51.102;6.514;2024-03-17T13:25:16;9.30;;;3.80;;
81627;SDS011;71036;51.102;6.514;2024-03-17T13:27:44;7.57;;;4.33;;
81627;SDS011;71036;51.102;6.514;2024-03-17T13:30:10;3.93;;;2.90;;
81627;SDS011;71036;51.102;6.514;2024-03-17T13:32:36;6.37;;;3.20;;
81627;SDS011;71036;51.102;6.514;2024-03-17T13:35:02;7.57;;;3.00;;
81627;SDS011;71036;51.102;6.514;2024-03-17T13:37:28;6.67;;;3.50;;
81627;SDS011;71036;51.102;6.514;2024-03-17T13:39:53;5.87;;;3.30;;
81627;SDS011;71036;51.102;6.514;2024-03-17T13:42:19;9.90;;;4.30;;
81627;SDS011;71036;51.102;6.514;2024-03-17T13:44:45;6.53;;;3.30;;
81627;SDS011;71036;51.102;6.514;2024-03-17T13:47:11;9.33;;;3.60;;
81627;SDS011;71036;51.102;6.514;2024-03-17T13:49:36;7.67;;;4.43;;
81627;SDS011;71036;51.102;6.514;2024-03-17T13:52:02;7.33;;;3.03;;
81627;SDS011;71036;51.102;6.514;2024-03-17T13:54:29;8.53;;;3.60;;
81627;SDS011;71036;51.102;6.514;2024-03-17T13:56:54;4.63;;;3.10;;
81627;SDS011;71036;51.102;6.514;2024-03-17T13:59:21;7.27;;;4.10;;
81627;SDS011;71036;51.102;6.514;2024-03-17T14:01:47;5.07;;;3.73;;
81627;SDS011;71036;51.102;6.514;2024-03-17T14:04:14;6.90;;;3.67;;
81627;SDS011;71036;51.102;6.514;2024-03-17T14:06:46;6.70;;;3.23;;
81627;SDS011;71036;51.102;6.514;2024-03-17T14:09:14;5.77;;;3.70;;
81627;SDS011;71036;51.102;6.514;2024-03-17T14:11:42;7.23;;;4.17;;
81627;SDS011;71036;51.102;6.514;2024-03-17T14:14:08;11.70;;;4.13;;
81627;SDS011;71036;51.102;6.514;2024-03-17T14:16:33;8.00;;;4.40;;
81627;SDS011;71036;51.102;6.514;2024-03-17T14:18:59;5.80;;;3.70;;
81627;SDS011;71036;51.102;6.514;2024-03-17T14:21:25;9.20;;;4.23;;
81627;SDS011;71036;51.102;6.514;2024-03-17T14:23:54;5.20;;;3.77;;
81627;SDS011;71036;51.102;6.514;2024-03-17T14:26:20;5.50;;;3.63;;
81627;SDS011;71036;51.102;6.514;2024-03-17T14:28:46;11.17;;;4.40;;
81627;SDS011;71036;51.102;6.514;2024-03-17T14:31:11;5.13;;;3.40;;
81627;SDS011;71036;51.102;6.514;2024-03-17T14:33:37;9.13;;;4.13;;
81627;SDS011;71036;51.102;6.514;2024-03-17T14:36:02;8.53;;;3.13;;
81627;SDS011;71036;51.102;6.514;2024-03-17T14:38:28;7.90;;;3.30;;
81627;SDS011;71036;51.102;6.514;2024-03-17T14:40:53;3.47;;;3.00;;
81627;SDS011;71036;51.102;6.514;2024-03-17T14:43:19;7.73;;;4.07;;
81627;SDS011;71036;51.102;6.514;2024-03-17T14:45:45;8.10;;;3.33;;
81627;SDS011;71036;51.102;6.514;2024-03-17T14:48:10;6.87;;;4.10;;
81627;SDS011;71036;51.102;6.514;2024-03-17T14:50:36;7.23;;;2.93;;
81627;SDS011;71036;51.102;6.514;2024-03-17T14:53:02;7.10;;;3.57;;
81627;SDS011;71036;51.102;6.514;2024-03-17T14:55:27;5.70;;;3.30;;